Portada
METAR-TAF:

METAR-TAF

Aeroports :

L'Havana, Cuba

latitud: 22-59N, longitud: 082-24W, altitud: 59 m

Observació

L'informe es va fer fa 42 minuts, a les 03:50 UTC
Vent 8 kt del Est
Temperatura 24°C
Humitat 83%
Pressió 1018 hPa
Visibilitat: 9000 m
Escasses núvols a una alçada de 3000 ft

METAR: MUHA 200350Z 08008KT 9000 FEW030 24/21 Q1018

Hora: 00:32 (04:32 UTC)

Pronòstic

L'informe es va fer fa 5 hores i 32 minuts, a les 23:00 UTC
Pronòstic vàlid del 20 a les 00 UTC al 20 a les 24 UTC
Vent 12 kt del Nord-Est
Visibilitat: 9000 m
Escasses núvols a una alçada de 3000 ft
Evolucionant progressivament
l' 20 a les 03 UTC al 20 a les 05 UTC
Vent 5 kt amb direcció variable
Evolucionant progressivament
l' 20 a les 14 UTC al 20 a les 16 UTC
Vent 10 kt del Est

TAF: MUHA 192300Z 2000/2024 04012KT 9000 FEW030 BECMG 2003/2005 VRB05KT BECMG 2014/2016 10010KT

Observacions i pronòstics meteorològics de més de 4000 aeroports (METAR i TAF).

Les estacions disponibles són els punts grocs i vermells al mapa.

Posi el ratolí al punt desitjat per veure el nom de l'estació.

Feu clic per veure les observacions i els pronòstics meteorològics.

Per canviar el mapa: feu clic els botons verds amb una creu de color negre per apropar; al botó verd amb un guió per allunyar la imatge; o en les fletxes verdes per a mapes adjacents.


METAR-TAF: